Time;durP1;ratioP1;P1;durP2;ratioP2;P2;SDS_P1;SDS_P2;PMS_P1;PMS_P2;Temp;Humidity;BMP_temperature;BMP_pressure;BME280_temperature;BME280_humidity;BME280_pressure;Samples;Min_cycle;Max_cycle;Signal;HPM_P1;HPM_P2
2023/07/10 00:00:04;;;;;;;2.78;2.58;;;31.40;38.50;;;;;;5149077;27;45228;-70
2023/07/10 00:02:32;;;;;;;2.85;2.53;;;31.30;38.50;;;;;;5149183;27;45378;-70
2023/07/10 00:04:59;;;;;;;2.67;2.10;;;31.40;39.30;;;;;;5148714;27;45237;-70
2023/07/10 00:07:26;;;;;;;2.60;2.40;;;31.30;38.60;;;;;;5148756;27;45282;-69
2023/07/10 00:09:53;;;;;;;3.08;2.78;;;31.30;38.70;;;;;;5148875;27;45398;-70
2023/07/10 00:12:21;;;;;;;3.20;2.40;;;31.30;38.70;;;;;;5149045;27;45418;-69
2023/07/10 00:14:48;;;;;;;3.92;2.80;;;31.30;39.10;;;;;;5148504;27;46408;-69
2023/07/10 00:17:15;;;;;;;2.90;2.35;;;31.20;38.70;;;;;;5148581;27;45294;-70
2023/07/10 00:19:43;;;;;;;3.38;2.90;;;31.20;38.90;;;;;;5148704;27;45336;-69
2023/07/10 00:22:10;;;;;;;4.07;2.80;;;31.20;38.90;;;;;;5148916;27;45370;-69
2023/07/10 00:24:37;;;;;;;2.75;2.55;;;31.10;38.90;;;;;;5148537;27;46509;-69
2023/07/10 00:27:06;;;;;;;3.13;2.63;;;31.10;39.00;;;;;;5148517;27;45159;-69
2023/07/10 00:29:33;;;;;;;3.17;2.65;;;31.10;39.00;;;;;;5148693;27;45349;-70
2023/07/10 00:32:01;;;;;;;3.40;2.80;;;31.10;39.00;;;;;;5148872;27;45287;-70
2023/07/10 00:34:29;;;;;;;2.75;2.50;;;31.10;39.00;;;;;;5148363;27;45237;-70
2023/07/10 00:36:57;;;;;;;2.97;2.67;;;31.10;39.00;;;;;;5148365;27;45125;-69
2023/07/10 00:39:25;;;;;;;2.75;2.45;;;31.10;39.00;;;;;;5148508;27;45414;-69
2023/07/10 00:41:55;;;;;;;3.00;2.53;;;31.00;39.00;;;;;;5148567;27;45248;-69
2023/07/10 00:44:23;;;;;;;4.90;2.50;;;31.10;39.10;;;;;;5148116;27;45183;-69
2023/07/10 00:46:53;;;;;;;2.40;2.20;;;31.00;39.00;;;;;;5148036;27;45337;-69
2023/07/10 00:49:23;;;;;;;2.90;2.58;;;31.00;39.10;;;;;;5148070;27;45223;-69
2023/07/10 00:51:56;;;;;;;2.65;2.30;;;30.90;39.00;;;;;;5148047;27;45430;-70
2023/07/10 00:54:27;;;;;;;2.67;2.40;;;30.90;39.10;;;;;;5148058;27;48435;-70
2023/07/10 00:56:54;;;;;;;2.90;2.47;;;30.90;39.10;;;;;;5147971;27;45160;-70
2023/07/10 00:59:22;;;;;;;3.80;2.35;;;30.90;39.10;;;;;;5148016;27;45241;-68
2023/07/10 01:02:22;;;;;;;3.00;2.17;;;30.90;39.20;;;;;;5148192;27;45228;-69
2023/07/10 01:04:53;;;;;;;2.72;2.28;;;30.80;39.20;;;;;;5063367;28;45318;-69
2023/07/10 01:07:22;;;;;;;2.58;2.33;;;30.80;39.10;;;;;;5063287;28;45344;-69
2023/07/10 01:09:56;;;;;;;2.70;2.50;;;30.80;39.20;;;;;;5104557;27;45247;-69
2023/07/10 01:12:23;;;;;;;2.80;2.40;;;30.80;39.20;;;;;;5148038;27;45395;-69
2023/07/10 01:14:50;;;;;;;2.65;2.40;;;30.80;39.30;;;;;;5147670;27;45232;-69
2023/07/10 01:17:17;;;;;;;2.78;2.55;;;30.80;39.30;;;;;;5147772;27;45290;-69
2023/07/10 01:19:45;;;;;;;2.58;2.38;;;30.80;39.30;;;;;;5147993;27;45395;-69
2023/07/10 01:22:13;;;;;;;3.47;2.45;;;30.80;39.30;;;;;;5147918;27;45604;-69
2023/07/10 01:24:40;;;;;;;2.72;2.40;;;30.80;39.40;;;;;;5147521;27;45234;-69
2023/07/10 01:27:11;;;;;;;2.85;2.50;;;30.70;39.30;;;;;;5147579;27;45116;-69
2023/07/10 01:29:41;;;;;;;3.42;2.65;;;30.70;39.40;;;;;;5147920;27;45277;-69
2023/07/10 01:32:09;;;;;;;2.53;2.22;;;30.70;39.40;;;;;;5147875;27;45319;-69
2023/07/10 01:34:38;;;;;;;2.92;2.60;;;30.60;39.40;;;;;;5147803;27;45361;-70
2023/07/10 01:37:05;;;;;;;3.70;2.60;;;30.60;39.40;;;;;;5147632;27;45251;-69
2023/07/10 01:39:37;;;;;;;2.97;2.38;;;30.60;39.40;;;;;;5147583;27;45128;-69
2023/07/10 01:42:04;;;;;;;3.83;2.42;;;30.60;39.40;;;;;;5147971;27;45397;-70
2023/07/10 01:44:32;;;;;;;2.92;2.38;;;30.60;39.50;;;;;;5147553;27;45278;-69
2023/07/10 01:47:00;;;;;;;2.80;2.58;;;30.60;39.50;;;;;;5147260;27;45331;-70
2023/07/10 01:49:27;;;;;;;2.72;2.35;;;30.60;39.50;;;;;;5147558;27;45286;-70
2023/07/10 01:51:55;;;;;;;2.90;2.30;;;30.60;39.60;;;;;;5147359;27;45487;-69
2023/07/10 01:54:22;;;;;;;3.10;2.35;;;30.60;39.60;;;;;;5147895;27;45211;-69
2023/07/10 01:56:50;;;;;;;3.55;2.08;;;30.60;39.60;;;;;;5148047;27;45232;-69
2023/07/10 01:59:17;;;;;;;3.15;2.58;;;30.50;39.60;;;;;;5148202;27;45330;-69
2023/07/10 02:01:43;;;;;;;2.50;2.30;;;30.50;39.50;;;;;;5148805;27;45321;-69
2023/07/10 02:04:10;;;;;;;4.43;2.45;;;30.50;39.60;;;;;;5151345;27;45242;-70
2023/07/10 02:06:38;;;;;;;2.50;2.30;;;30.50;39.50;;;;;;5151415;27;45133;-70
2023/07/10 02:09:05;;;;;;;2.55;2.35;;;30.50;39.60;;;;;;5151669;27;45237;-69
2023/07/10 02:11:34;;;;;;;2.50;2.28;;;30.50;39.70;;;;;;5151709;27;45340;-70
2023/07/10 02:14:02;;;;;;;2.60;2.40;;;30.50;39.70;;;;;;5151274;27;45462;-69
2023/07/10 02:16:29;;;;;;;2.58;2.30;;;30.40;39.70;;;;;;5151230;27;45301;-69
2023/07/10 02:18:56;;;;;;;3.10;2.42;;;30.40;39.80;;;;;;5151399;27;45257;-69
2023/07/10 02:21:23;;;;;;;3.05;2.45;;;30.40;39.80;;;;;;5151490;27;45468;-69
2023/07/10 02:23:50;;;;;;;2.20;2.00;;;30.40;39.80;;;;;;5151475;27;45413;-69
2023/07/10 02:26:17;;;;;;;2.75;2.40;;;30.40;39.90;;;;;;5151044;27;45133;-69
2023/07/10 02:28:43;;;;;;;2.92;2.30;;;30.40;39.80;;;;;;5151355;27;45322;-69
2023/07/10 02:31:12;;;;;;;2.88;2.55;;;30.30;39.80;;;;;;5150729;27;45302;-68
2023/07/10 02:33:38;;;;;;;2.55;2.35;;;30.30;39.80;;;;;;5151072;27;45276;-69
2023/07/10 02:36:06;;;;;;;4.07;2.22;;;30.30;39.90;;;;;;5151134;27;45225;-68
2023/07/10 02:38:32;;;;;;;2.58;2.38;;;30.30;40.00;;;;;;5151076;27;45222;-68
2023/07/10 02:40:59;;;;;;;2.80;2.35;;;30.30;40.00;;;;;;5151106;27;45285;-68
2023/07/10 02:43:26;;;;;;;3.67;2.50;;;30.30;40.00;;;;;;5150902;27;46287;-68
2023/07/10 02:45:53;;;;;;;2.38;2.15;;;30.30;40.00;;;;;;5150881;27;45323;-68
2023/07/10 02:48:21;;;;;;;2.42;2.17;;;30.30;40.00;;;;;;5150989;27;45261;-68
2023/07/10 02:50:48;;;;;;;2.38;2.17;;;30.20;40.00;;;;;;5150910;27;45460;-68
2023/07/10 02:53:15;;;;;;;2.75;2.55;;;30.20;40.00;;;;;;5150364;27;45352;-69
2023/07/10 02:55:43;;;;;;;2.60;2.35;;;30.20;40.10;;;;;;5150647;27;45307;-69
2023/07/10 02:58:10;;;;;;;2.80;2.20;;;30.20;40.10;;;;;;5150919;27;45345;-69
2023/07/10 03:00:37;;;;;;;3.13;2.38;;;30.20;40.10;;;;;;5150928;27;45236;-69
2023/07/10 03:03:03;;;;;;;3.72;2.65;;;30.20;40.30;;;;;;5150413;27;45337;-69
2023/07/10 03:05:32;;;;;;;2.53;2.25;;;30.20;40.40;;;;;;5150507;27;45317;-68
2023/07/10 03:07:58;;;;;;;3.22;2.20;;;30.10;40.50;;;;;;5150654;27;45201;-68
2023/07/10 03:10:25;;;;;;;2.38;2.13;;;30.10;40.40;;;;;;5150651;27;45392;-68
2023/07/10 03:12:52;;;;;;;2.90;2.60;;;30.10;40.50;;;;;;5150049;27;46435;-68
2023/07/10 03:15:19;;;;;;;2.63;2.33;;;30.10;40.80;;;;;;5150012;27;45236;-67
2023/07/10 03:17:45;;;;;;;2.63;2.42;;;30.10;40.70;;;;;;5149793;27;45441;-68
2023/07/10 03:20:12;;;;;;;3.42;2.50;;;30.00;40.80;;;;;;5150507;27;45351;-68
2023/07/10 03:22:40;;;;;;;2.67;2.13;;;30.00;40.80;;;;;;5150150;27;47364;-68
2023/07/10 03:25:08;;;;;;;3.05;2.50;;;30.00;41.00;;;;;;5150040;27;45330;-68
2023/07/10 03:27:35;;;;;;;3.92;2.28;;;30.00;41.20;;;;;;5150344;27;45239;-67
2023/07/10 03:30:01;;;;;;;4.15;2.53;;;30.00;41.40;;;;;;5150392;27;45281;-68
2023/07/10 03:32:28;;;;;;;2.55;2.35;;;30.00;41.70;;;;;;5149887;27;46302;-68
2023/07/10 03:34:57;;;;;;;4.05;2.55;;;30.00;41.70;;;;;;5149949;27;45169;-68
2023/07/10 03:37:24;;;;;;;3.13;2.63;;;30.00;41.70;;;;;;5150065;27;45373;-68
2023/07/10 03:39:52;;;;;;;2.53;2.33;;;29.90;41.60;;;;;;5150410;27;45309;-68
2023/07/10 03:42:19;;;;;;;4.00;2.42;;;29.90;41.80;;;;;;5149609;27;46402;-67
2023/07/10 03:44:46;;;;;;;2.97;2.30;;;29.90;41.90;;;;;;5149792;27;45135;-68
2023/07/10 03:47:12;;;;;;;2.85;2.53;;;29.90;42.00;;;;;;5149736;27;45142;-68
2023/07/10 03:49:39;;;;;;;2.80;2.17;;;29.90;42.20;;;;;;5149990;27;45236;-68
2023/07/10 03:52:06;;;;;;;3.60;2.40;;;29.90;42.20;;;;;;5149520;27;46382;-68
2023/07/10 03:54:33;;;;;;;2.50;2.30;;;29.90;42.10;;;;;;5149940;27;45385;-68
2023/07/10 03:57:01;;;;;;;3.58;2.55;;;29.90;42.10;;;;;;5149706;27;45315;-68
2023/07/10 03:59:28;;;;;;;2.70;2.50;;;29.80;42.10;;;;;;5149925;27;45414;-68
2023/07/10 04:01:55;;;;;;;3.35;2.30;;;29.80;42.80;;;;;;5148885;27;45464;-67
2023/07/10 04:04:22;;;;;;;3.08;2.85;;;29.80;42.40;;;;;;5148907;27;45239;-67
2023/07/10 04:06:49;;;;;;;3.15;2.50;;;29.80;42.30;;;;;;5149700;27;45194;-67
2023/07/10 04:09:16;;;;;;;2.78;2.58;;;29.70;42.50;;;;;;5149711;27;45340;-67
2023/07/10 04:11:43;;;;;;;2.80;2.50;;;29.70;42.60;;;;;;5149445;27;45282;-68
2023/07/10 04:14:11;;;;;;;3.22;2.45;;;29.80;42.70;;;;;;5149212;27;45304;-68
2023/07/10 04:16:38;;;;;;;2.92;2.17;;;29.70;42.50;;;;;;5149643;27;45361;-68
2023/07/10 04:19:04;;;;;;;2.53;2.22;;;29.70;42.60;;;;;;5149737;27;45308;-68
2023/07/10 04:21:32;;;;;;;3.67;2.90;;;29.70;42.60;;;;;;5149224;27;45471;-68
2023/07/10 04:23:59;;;;;;;3.28;2.53;;;29.70;42.50;;;;;;5149164;27;45312;-67
2023/07/10 04:26:27;;;;;;;3.40;2.72;;;29.70;42.60;;;;;;5148797;27;45447;-67
2023/07/10 04:28:55;;;;;;;2.30;2.10;;;29.70;42.90;;;;;;5149404;27;45407;-67
2023/07/10 04:31:23;;;;;;;2.90;2.33;;;29.60;43.00;;;;;;5148759;27;45428;-68
2023/07/10 04:33:50;;;;;;;3.38;2.78;;;29.70;43.00;;;;;;5149203;27;45365;-68
2023/07/10 04:36:17;;;;;;;4.07;2.63;;;29.60;43.10;;;;;;5149096;27;45248;-67
2023/07/10 04:38:44;;;;;;;2.97;2.67;;;29.60;43.10;;;;;;5149191;27;45189;-67
2023/07/10 04:41:12;;;;;;;3.35;2.50;;;29.60;43.10;;;;;;5148899;27;45600;-67
2023/07/10 04:43:39;;;;;;;3.03;2.58;;;29.60;43.20;;;;;;5148979;27;45384;-67
2023/07/10 04:46:07;;;;;;;5.03;2.20;;;29.60;43.20;;;;;;5148998;27;45391;-68
2023/07/10 04:48:35;;;;;;;6.40;2.88;;;29.60;43.20;;;;;;5148869;27;45169;-66
2023/07/10 04:51:04;;;;;;;2.55;2.35;;;29.60;43.50;;;;;;5148005;27;47305;-68
2023/07/10 04:53:31;;;;;;;3.38;2.70;;;29.50;43.30;;;;;;5148707;27;45237;-68
2023/07/10 04:56:00;;;;;;;3.05;2.35;;;29.50;43.30;;;;;;5148920;27;45308;-68
2023/07/10 04:58:28;;;;;;;3.83;2.88;;;29.50;43.50;;;;;;5149035;27;45426;-68
2023/07/10 05:00:56;;;;;;;4.57;2.50;;;29.50;43.70;;;;;;5148446;27;45467;-68
2023/07/10 05:03:23;;;;;;;3.22;2.35;;;29.50;44.00;;;;;;5148496;27;45249;-68
2023/07/10 05:05:54;;;;;;;2.40;2.20;;;29.50;43.40;;;;;;5148692;27;45239;-68
2023/07/10 05:08:22;;;;;;;3.67;2.38;;;29.50;43.40;;;;;;5148838;27;45309;-68
2023/07/10 05:10:50;;;;;;;3.28;2.40;;;29.50;43.40;;;;;;5148346;27;45469;-68
2023/07/10 05:13:18;;;;;;;2.70;2.45;;;29.40;43.30;;;;;;5148411;27;45164;-68
2023/07/10 05:15:45;;;;;;;2.35;2.17;;;29.40;43.30;;;;;;5148658;27;45309;-67
2023/07/10 05:18:12;;;;;;;3.78;2.50;;;29.40;43.20;;;;;;5148727;27;45407;-68
2023/07/10 05:20:39;;;;;;;2.88;2.47;;;29.40;43.20;;;;;;5148271;27;45466;-68
2023/07/10 05:23:07;;;;;;;2.90;2.60;;;29.40;43.20;;;;;;5148716;27;45253;-68
2023/07/10 05:25:34;;;;;;;3.05;2.33;;;29.40;43.20;;;;;;5148546;27;45294;-68
2023/07/10 05:28:01;;;;;;;2.45;2.08;;;29.30;43.30;;;;;;5148730;27;45447;-68
2023/07/10 05:30:28;;;;;;;2.55;2.33;;;29.30;43.30;;;;;;5148269;27;46588;-68
2023/07/10 05:32:55;;;;;;;3.13;2.55;;;29.30;43.40;;;;;;5148182;27;45205;-67
2023/07/10 05:35:22;;;;;;;2.45;2.17;;;29.30;43.30;;;;;;5148225;27;45203;-68
2023/07/10 05:37:49;;;;;;;2.78;2.53;;;29.30;43.20;;;;;;5150904;27;45389;-68
2023/07/10 05:40:17;;;;;;;2.53;2.28;;;29.30;43.30;;;;;;5151061;27;45391;-67
2023/07/10 05:42:44;;;;;;;2.30;2.10;;;29.30;44.10;;;;;;5151598;27;45302;-68
2023/07/10 05:45:11;;;;;;;2.47;2.25;;;29.30;43.60;;;;;;5152019;27;45329;-68
2023/07/10 05:47:38;;;;;;;3.03;2.45;;;29.20;43.40;;;;;;5152283;27;45343;-67
2023/07/10 05:50:05;;;;;;;2.42;2.17;;;29.20;43.40;;;;;;5151531;27;46357;-68
2023/07/10 05:52:32;;;;;;;3.90;2.60;;;29.20;43.40;;;;;;5151136;27;45240;-68
2023/07/10 05:54:59;;;;;;;3.58;2.55;;;29.20;43.40;;;;;;5151499;27;45322;-68
2023/07/10 05:57:27;;;;;;;2.63;2.30;;;29.20;43.50;;;;;;5151709;27;45164;-68
2023/07/10 05:59:54;;;;;;;3.17;2.50;;;29.20;43.50;;;;;;5151634;27;46586;-67
2023/07/10 06:02:21;;;;;;;3.67;2.47;;;29.20;43.60;;;;;;5151613;27;45259;-67
2023/07/10 06:04:47;;;;;;;3.08;2.45;;;29.20;43.50;;;;;;5151590;27;45338;-68
2023/07/10 06:07:14;;;;;;;3.40;2.53;;;29.20;43.60;;;;;;5151545;27;45484;-68
2023/07/10 06:09:41;;;;;;;2.92;2.53;;;29.20;43.50;;;;;;5151033;27;45459;-68
2023/07/10 06:12:09;;;;;;;2.50;2.30;;;29.10;43.70;;;;;;5151302;27;45180;-68
2023/07/10 06:14:37;;;;;;;2.53;2.20;;;29.10;43.60;;;;;;5151378;27;45235;-68
2023/07/10 06:17:04;;;;;;;3.38;2.38;;;29.10;44.20;;;;;;5151566;27;45322;-68
2023/07/10 06:19:31;;;;;;;2.90;2.40;;;29.10;43.80;;;;;;5151047;27;45470;-68
2023/07/10 06:22:05;;;;;;;3.72;2.30;;;29.10;43.60;;;;;;5151170;27;45307;-68
2023/07/10 06:24:32;;;;;;;3.22;2.58;;;29.10;43.60;;;;;;5151362;27;45367;-68
2023/07/10 06:26:59;;;;;;;2.55;2.35;;;29.10;43.60;;;;;;5150721;27;45182;-68
2023/07/10 06:29:26;;;;;;;3.08;2.40;;;29.10;43.60;;;;;;5144370;27;45699;-68
2023/07/10 06:31:54;;;;;;;2.92;2.58;;;29.10;43.60;;;;;;5127376;27;45258;-68
2023/07/10 06:34:21;;;;;;;2.47;2.28;;;29.10;43.60;;;;;;5130619;27;45271;-68
2023/07/10 06:36:48;;;;;;;3.05;2.42;;;29.10;43.60;;;;;;5127787;27;45192;-67
2023/07/10 06:39:14;;;;;;;2.63;2.42;;;29.10;43.50;;;;;;5129951;27;45439;-68
2023/07/10 06:41:41;;;;;;;3.58;2.50;;;29.10;43.60;;;;;;5130172;27;45370;-68
2023/07/10 06:44:08;;;;;;;2.65;2.30;;;29.10;43.50;;;;;;5130270;27;45390;-68
2023/07/10 06:46:35;;;;;;;3.17;2.35;;;29.10;43.50;;;;;;5130178;27;45130;-68
2023/07/10 06:49:03;;;;;;;2.00;1.90;;;29.20;43.60;;;;;;5129445;27;45500;-68
2023/07/10 06:51:30;;;;;;;2.63;2.33;;;29.10;43.50;;;;;;5130451;27;45249;-68
2023/07/10 06:53:57;;;;;;;2.47;2.22;;;29.20;43.60;;;;;;5130898;27;45355;-68
2023/07/10 06:56:23;;;;;;;2.90;2.30;;;29.20;43.60;;;;;;5130096;27;45407;-68
2023/07/10 06:58:50;;;;;;;2.95;2.42;;;29.20;43.50;;;;;;5129630;27;45337;-68
2023/07/10 07:01:17;;;;;;;2.42;2.05;;;29.20;43.50;;;;;;5129690;27;45159;-68
2023/07/10 07:03:44;;;;;;;3.30;2.33;;;29.20;43.50;;;;;;5129588;27;45169;-68
2023/07/10 07:06:12;;;;;;;2.50;2.30;;;29.20;43.80;;;;;;5130620;27;45387;-66
2023/07/10 07:08:39;;;;;;;3.03;2.40;;;29.20;43.80;;;;;;5138785;27;46399;-67
2023/07/10 07:11:06;;;;;;;4.05;2.30;;;29.20;43.70;;;;;;5140622;27;45221;-67
2023/07/10 07:13:32;;;;;;;2.53;2.30;;;29.20;43.70;;;;;;5139065;27;45176;-69
2023/07/10 07:15:59;;;;;;;3.67;2.67;;;29.20;43.90;;;;;;5143330;27;45225;-67
2023/07/10 07:18:26;;;;;;;5.43;3.15;;;29.20;46.80;;;;;;5145900;27;47584;-69
2023/07/10 07:20:53;;;;;;;6.15;3.05;;;29.20;47.90;;;;;;5144856;27;45430;-68
2023/07/10 07:23:21;;;;;;;8.07;3.55;;;29.20;48.80;;;;;;5150131;27;45327;-69
2023/07/10 07:25:48;;;;;;;7.65;3.40;;;29.20;49.70;;;;;;5147657;27;45409;-68
2023/07/10 07:28:15;;;;;;;4.38;3.40;;;29.20;49.90;;;;;;5152128;27;45658;-68
2023/07/10 07:30:47;;;;;;;6.88;3.40;;;29.20;50.80;;;;;;5151548;27;45264;-68
2023/07/10 07:33:14;;;;;;;4.75;3.28;;;29.20;50.50;;;;;;5149741;27;45184;-70
2023/07/10 07:35:40;;;;;;;5.40;3.65;;;29.30;50.20;;;;;;5149831;27;45332;-68
2023/07/10 07:38:07;;;;;;;5.53;3.47;;;29.30;50.00;;;;;;5149296;27;45424;-70
2023/07/10 07:40:35;;;;;;;4.80;3.30;;;29.30;50.80;;;;;;5149575;27;45390;-67
2023/07/10 07:43:02;;;;;;;5.70;3.72;;;29.30;51.30;;;;;;5149837;27;45293;-68
2023/07/10 07:45:29;;;;;;;6.57;3.67;;;29.30;51.90;;;;;;5149858;27;45401;-67
2023/07/10 07:47:56;;;;;;;4.43;3.45;;;29.30;52.00;;;;;;5148869;27;46419;-69
2023/07/10 07:50:22;;;;;;;5.18;3.55;;;29.30;51.80;;;;;;5149132;27;45466;-69
2023/07/10 07:52:49;;;;;;;4.28;3.65;;;29.30;52.00;;;;;;5148440;27;45508;-68
2023/07/10 07:55:16;;;;;;;5.40;3.50;;;29.30;51.90;;;;;;5146259;27;45344;-68
2023/07/10 07:57:44;;;;;;;4.50;3.22;;;29.30;52.70;;;;;;5148461;27;46344;-69
2023/07/10 08:00:12;;;;;;;4.22;3.20;;;29.30;52.70;;;;;;5147555;27;45256;-68
2023/07/10 08:02:39;;;;;;;4.22;3.47;;;29.40;52.00;;;;;;5148642;27;45378;-68
2023/07/10 08:05:06;;;;;;;3.28;2.97;;;29.40;52.40;;;;;;5148810;27;45391;-68
2023/07/10 08:07:33;;;;;;;6.03;3.63;;;29.40;51.90;;;;;;5148075;27;45345;-68
2023/07/10 08:10:01;;;;;;;4.35;3.10;;;29.40;52.20;;;;;;5148536;27;45427;-68
2023/07/10 08:12:30;;;;;;;5.03;3.35;;;29.50;52.20;;;;;;5144038;27;45445;-68
2023/07/10 08:14:58;;;;;;;4.57;3.13;;;29.50;52.00;;;;;;5144279;27;45315;-69
2023/07/10 08:17:25;;;;;;;5.65;3.20;;;29.50;51.90;;;;;;5145554;27;46677;-70
2023/07/10 08:19:52;;;;;;;5.13;3.30;;;29.50;51.80;;;;;;5148102;27;45378;-68
2023/07/10 08:22:19;;;;;;;6.32;2.90;;;29.50;51.20;;;;;;5146719;27;45385;-70
2023/07/10 08:24:46;;;;;;;6.75;3.10;;;29.50;51.00;;;;;;5145244;27;45276;-68
2023/07/10 08:27:12;;;;;;;3.08;2.78;;;29.60;51.10;;;;;;5147664;27;45493;-68
2023/07/10 08:29:39;;;;;;;3.00;2.70;;;29.60;50.80;;;;;;5148049;27;45316;-68
2023/07/10 08:32:08;;;;;;;3.85;2.90;;;29.60;50.60;;;;;;5148093;27;45300;-68
2023/07/10 08:34:35;;;;;;;2.90;2.60;;;29.60;50.20;;;;;;5147678;27;45377;-68
2023/07/10 08:37:02;;;;;;;3.13;2.83;;;29.70;50.10;;;;;;5144839;27;46715;-68
2023/07/10 08:39:29;;;;;;;4.47;2.70;;;29.70;49.80;;;;;;5147631;27;45240;-70
2023/07/10 08:41:57;;;;;;;3.40;2.42;;;29.70;49.60;;;;;;5147949;27;45322;-69
2023/07/10 08:44:32;;;;;;;3.00;2.70;;;29.80;49.70;;;;;;5145560;27;45389;-68
2023/07/10 08:46:59;;;;;;;2.92;2.63;;;29.80;51.10;;;;;;5140892;27;46364;-69
2023/07/10 08:49:30;;;;;;;3.75;2.70;;;29.70;50.40;;;;;;5144491;27;45212;-67
2023/07/10 08:51:58;;;;;;;3.80;2.60;;;29.70;50.10;;;;;;5147703;27;45279;-69
2023/07/10 08:54:25;;;;;;;2.72;2.47;;;29.80;49.60;;;;;;5147860;27;45741;-68
2023/07/10 08:56:57;;;;;;;4.25;2.72;;;29.90;49.40;;;;;;5147593;27;47335;-67
2023/07/10 08:59:43;;;;;;;3.78;2.60;;;29.90;49.30;;;;;;5147488;27;45344;-70
2023/07/10 09:02:26;;;;;;;2.60;2.40;;;29.90;49.20;;;;;;5147842;27;45494;-68
2023/07/10 09:04:54;;;;;;;4.93;2.60;;;30.00;49.20;;;;;;5147952;27;45370;-68
2023/07/10 09:07:20;;;;;;;4.15;2.80;;;30.00;49.60;;;;;;5147278;27;45402;-69
2023/07/10 09:09:49;;;;;;;3.05;2.38;;;30.00;49.00;;;;;;5147640;27;45280;-68
2023/07/10 09:12:18;;;;;;;3.13;2.70;;;30.00;49.00;;;;;;5150700;27;45214;-70
2023/07/10 09:14:48;;;;;;;3.50;2.83;;;30.10;49.10;;;;;;5150221;27;45483;-69
2023/07/10 09:17:25;;;;;;;4.25;2.80;;;30.10;49.00;;;;;;5146476;27;45538;-68
2023/07/10 09:19:57;;;;;;;3.25;2.70;;;30.10;48.90;;;;;;5138639;27;45463;-69
2023/07/10 09:22:24;;;;;;;2.78;2.50;;;30.20;48.90;;;;;;5148313;27;45265;-69
2023/07/10 09:24:50;;;;;;;3.10;2.67;;;30.20;48.90;;;;;;5146173;27;45320;-68
2023/07/10 09:27:17;;;;;;;3.85;2.90;;;30.20;48.90;;;;;;5151132;27;47303;-69
2023/07/10 09:29:45;;;;;;;3.70;2.47;;;30.20;48.90;;;;;;5150597;27;45404;-69
2023/07/10 09:32:12;;;;;;;2.85;2.30;;;30.30;49.10;;;;;;5151431;27;45149;-69
2023/07/10 09:34:42;;;;;;;3.65;2.53;;;30.30;49.10;;;;;;5151522;27;45314;-69
2023/07/10 09:37:11;;;;;;;3.13;2.60;;;30.40;49.70;;;;;;5151229;27;47281;-69
2023/07/10 09:39:38;;;;;;;3.78;2.80;;;30.40;49.00;;;;;;5151259;27;45153;-69
2023/07/10 09:42:06;;;;;;;4.28;3.10;;;30.40;48.90;;;;;;5151480;27;45161;-69
2023/07/10 09:44:35;;;;;;;5.15;2.97;;;30.50;48.80;;;;;;5151349;27;45457;-70
2023/07/10 09:47:06;;;;;;;4.80;2.60;;;30.50;48.80;;;;;;5150865;27;46710;-69
2023/07/10 09:49:34;;;;;;;3.05;2.67;;;30.50;48.70;;;;;;5150431;27;45319;-69
2023/07/10 09:52:02;;;;;;;4.55;2.55;;;30.50;48.60;;;;;;5150630;27;45493;-69
2023/07/10 09:54:35;;;;;;;3.83;3.00;;;30.60;48.60;;;;;;5150951;27;45434;-69
2023/07/10 09:57:03;;;;;;;3.50;2.30;;;30.60;48.40;;;;;;5150615;27;46312;-70
2023/07/10 09:59:32;;;;;;;3.00;2.55;;;30.70;48.40;;;;;;5150690;27;45336;-70
2023/07/10 10:02:04;;;;;;;4.07;2.38;;;30.70;48.40;;;;;;5150592;27;45446;-70
2023/07/10 10:04:31;;;;;;;3.20;2.50;;;30.70;48.20;;;;;;5150625;27;45583;-70
2023/07/10 10:07:01;;;;;;;2.70;2.50;;;30.70;48.20;;;;;;5150577;27;47586;-69
2023/07/10 10:09:29;;;;;;;3.28;2.40;;;30.80;48.10;;;;;;5150241;27;45261;-69
2023/07/10 10:12:01;;;;;;;3.00;2.70;;;30.80;48.10;;;;;;5150327;27;45341;-69
2023/07/10 10:14:35;;;;;;;3.88;2.80;;;30.80;47.90;;;;;;5150790;27;45300;-70
2023/07/10 10:17:03;;;;;;;2.95;2.35;;;30.80;47.80;;;;;;5150188;27;45438;-70
2023/07/10 10:19:32;;;;;;;3.75;2.30;;;30.90;48.40;;;;;;5150335;27;45260;-69
2023/07/10 10:21:59;;;;;;;3.63;2.42;;;30.90;47.70;;;;;;5150140;27;45271;-70
2023/07/10 10:24:26;;;;;;;4.28;2.47;;;30.90;47.60;;;;;;5149841;27;45326;-70
2023/07/10 10:27:02;;;;;;;2.80;2.50;;;31.00;47.60;;;;;;5149986;27;46386;-69
2023/07/10 10:29:48;;;;;;;2.63;2.42;;;31.00;47.60;;;;;;5150123;27;45392;-70
2023/07/10 10:32:20;;;;;;;3.47;2.42;;;31.00;47.40;;;;;;5150080;27;45307;-70
2023/07/10 10:34:51;;;;;;;2.47;2.28;;;31.10;47.40;;;;;;5150533;27;45278;-70
2023/07/10 10:37:27;;;;;;;2.72;2.10;;;31.10;47.40;;;;;;5149738;27;46791;-70
2023/07/10 10:39:56;;;;;;;2.75;2.50;;;31.20;47.30;;;;;;5149688;27;45420;-70
2023/07/10 10:42:29;;;;;;;2.50;2.30;;;31.10;47.10;;;;;;5149838;27;45260;-70
2023/07/10 10:44:58;;;;;;;2.85;2.22;;;31.20;47.20;;;;;;5149977;27;45383;-69
2023/07/10 10:47:32;;;;;;;2.60;2.33;;;31.20;47.10;;;;;;5149601;27;45265;-69
2023/07/10 10:50:19;;;;;;;2.50;2.08;;;31.20;47.00;;;;;;5149597;27;45263;-69
2023/07/10 10:52:51;;;;;;;2.38;2.17;;;31.30;47.10;;;;;;5136084;27;45231;-69
2023/07/10 10:55:30;;;;;;;2.60;2.40;;;31.30;47.00;;;;;;5149693;27;45257;-69
2023/07/10 10:58:04;;;;;;;3.13;2.42;;;31.40;46.90;;;;;;5149420;27;47427;-69
2023/07/10 11:00:40;;;;;;;3.75;2.83;;;31.40;46.80;;;;;;5149399;27;45313;-69
2023/07/10 11:03:14;;;;;;;2.47;2.25;;;31.40;46.70;;;;;;5149444;27;45391;-69
2023/07/10 11:05:43;;;;;;;2.95;2.33;;;31.40;46.60;;;;;;5149729;27;45294;-69
2023/07/10 11:08:13;;;;;;;2.42;2.22;;;31.50;46.60;;;;;;5149268;27;47322;-69
2023/07/10 11:10:40;;;;;;;2.60;2.40;;;31.50;47.20;;;;;;5149358;27;45307;-69
2023/07/10 11:13:14;;;;;;;2.53;2.33;;;31.50;46.50;;;;;;5149535;27;45383;-69
2023/07/10 11:15:41;;;;;;;2.65;2.40;;;31.50;46.50;;;;;;5149628;27;45134;-69
2023/07/10 11:18:09;;;;;;;2.50;2.30;;;31.60;46.40;;;;;;5149111;27;46363;-69
2023/07/10 11:20:36;;;;;;;3.63;2.50;;;31.60;46.40;;;;;;5149208;27;45395;-69
2023/07/10 11:23:05;;;;;;;2.90;2.70;;;31.60;46.30;;;;;;5149271;27;45362;-69
2023/07/10 11:25:33;;;;;;;2.60;2.40;;;31.70;46.30;;;;;;5146285;27;45647;-69
2023/07/10 11:28:04;;;;;;;2.67;2.47;;;31.70;46.20;;;;;;5147072;27;45296;-68
2023/07/10 11:30:33;;;;;;;2.92;2.60;;;31.70;46.50;;;;;;5145257;27;45459;-68
2023/07/10 11:33:03;;;;;;;3.40;2.80;;;31.70;46.50;;;;;;5147290;27;45422;-69
2023/07/10 11:35:30;;;;;;;3.78;2.28;;;31.80;47.30;;;;;;5143352;27;45403;-70
2023/07/10 11:38:15;;;;;;;5.70;2.53;;;31.80;48.20;;;;;;5149430;27;45303;-71
2023/07/10 11:40:52;;;;;;;4.53;2.92;;;31.90;48.50;;;;;;5149738;27;45245;-71
2023/07/10 11:43:57;;;;;;;3.40;3.10;;;32.00;48.90;;;;;;5149171;27;45393;-68
2023/07/10 11:46:35;;;;;;;5.45;3.08;;;32.10;47.00;;;;;;5144533;27;45567;-68
2023/07/10 11:49:13;;;;;;;4.15;3.17;;;32.10;47.10;;;;;;5148054;27;47579;-68
2023/07/10 11:51:40;;;;;;;3.83;3.40;;;32.20;46.90;;;;;;5147962;27;45318;-68
2023/07/10 11:54:46;;;;;;;3.58;3.28;;;32.20;46.70;;;;;;5148512;27;45453;-68
2023/07/10 11:57:20;;;;;;;3.25;2.95;;;32.30;46.30;;;;;;5148788;27;45391;-68
2023/07/10 11:59:51;;;;;;;3.72;2.85;;;32.30;46.00;;;;;;5148065;27;45387;-68
2023/07/10 12:02:31;;;;;;;5.55;3.10;;;32.40;45.80;;;;;;5148343;27;45338;-67
2023/07/10 12:05:00;;;;;;;2.83;2.63;;;32.40;45.70;;;;;;5146075;27;45389;-67
2023/07/10 12:07:27;;;;;;;3.20;2.92;;;32.40;45.50;;;;;;5148306;27;45558;-68
2023/07/10 12:09:55;;;;;;;3.00;2.70;;;32.50;45.30;;;;;;5147854;27;45419;-68
2023/07/10 12:12:22;;;;;;;3.22;2.88;;;32.50;45.10;;;;;;5147990;27;45215;-68
2023/07/10 12:14:48;;;;;;;3.60;2.78;;;32.60;45.20;;;;;;5148294;27;45312;-68
2023/07/10 12:17:16;;;;;;;3.25;2.60;;;32.60;45.00;;;;;;5148306;27;45427;-67
2023/07/10 12:19:45;;;;;;;3.30;2.72;;;32.60;45.00;;;;;;5147834;27;45494;-68
2023/07/10 12:22:18;;;;;;;2.75;2.55;;;32.70;44.90;;;;;;5147695;27;45318;-67
2023/07/10 12:24:48;;;;;;;3.25;2.40;;;32.70;44.70;;;;;;5143689;27;45537;-68
2023/07/10 12:27:15;;;;;;;2.90;2.55;;;32.70;44.70;;;;;;5139581;27;45308;-67
2023/07/10 12:29:48;;;;;;;2.67;2.45;;;32.70;44.60;;;;;;5147391;27;46455;-68
2023/07/10 12:32:15;;;;;;;3.47;2.65;;;32.80;44.60;;;;;;5143335;27;45392;-67
2023/07/10 12:34:42;;;;;;;3.17;2.53;;;32.80;44.30;;;;;;5147783;27;44781;-68
2023/07/10 12:37:10;;;;;;;3.55;2.70;;;32.80;44.40;;;;;;5147979;27;45600;-68
2023/07/10 12:39:37;;;;;;;3.72;2.75;;;32.90;44.40;;;;;;5147705;27;46567;-68
2023/07/10 12:42:26;;;;;;;3.53;2.30;;;32.90;44.20;;;;;;5147542;27;45509;-68
2023/07/10 12:44:52;;;;;;;2.53;2.17;;;33.00;44.20;;;;;;5144637;27;45453;-69
2023/07/10 12:47:19;;;;;;;3.78;2.50;;;33.00;44.10;;;;;;5147233;27;45242;-68
2023/07/10 12:49:49;;;;;;;2.70;2.50;;;33.00;44.00;;;;;;5147282;27;45269;-68
2023/07/10 12:52:17;;;;;;;2.40;2.20;;;33.10;44.00;;;;;;5130312;27;45356;-68
2023/07/10 12:54:46;;;;;;;2.50;2.30;;;33.10;44.00;;;;;;5144813;27;45507;-68